Sao Bento do Sapucai, Brazil
Current Conditions -  °F | °C
As of 4:00 PM on Thursday 18 Dec 2014 (Local Time) from SBGW Reporting Station
Scattered Clouds Scattered Clouds  
Wind Chill: 95°   Ceiling: Unl
Heat Index: 95°   Visibility: 6mi
Dew Point: 61°   Wind: 3mph
Humidity: 32%   Direction: 350°N
Pressure: 29.77"   Gusts: NA
Location:  22.69°S, 45.73°W
Report Text: SBGW 181800Z 35003KT 9999 SCT030 35/16 Q1008
Loading
Personal Weather Stations






























Interactive Weather Map New forecast layout! Learn more

10-Day Weather Forecast

Advertisements
Track Severe Weather on mobile